createdAt,value
2022-09-21T00:00:03.402Z,102122.31
2022-09-21T00:00:33.827Z,102125.18
2022-09-21T00:01:04.338Z,102126.66
2022-09-21T00:01:34.758Z,102124.32
2022-09-21T00:02:05.223Z,102124.98
2022-09-21T00:02:35.606Z,102125.96
2022-09-21T00:03:06.006Z,102124.96
2022-09-21T00:03:36.425Z,102122.96
2022-09-21T00:04:06.980Z,102125.80
2022-09-21T00:04:37.401Z,102124.80
2022-09-21T00:05:07.821Z,102126.10
2022-09-21T00:05:38.242Z,102130.11
2022-09-21T00:06:08.661Z,102125.58
2022-09-21T00:06:39.085Z,102130.59
2022-09-21T00:07:09.504Z,102129.27
2022-09-21T00:07:39.924Z,102127.98
2022-09-21T00:08:10.345Z,102130.33
2022-09-21T00:08:40.764Z,102130.30
2022-09-21T00:09:11.198Z,102128.27
2022-09-21T00:09:41.619Z,102129.80
2022-09-21T00:10:12.037Z,102131.85
2022-09-21T00:10:42.459Z,102131.34
2022-09-21T00:11:12.875Z,102135.05
2022-09-21T00:11:43.294Z,102128.03
2022-09-21T00:12:13.713Z,102130.84
2022-09-21T00:12:44.135Z,102131.88
2022-09-21T00:13:14.554Z,102132.72
2022-09-21T00:13:44.974Z,102130.52
2022-09-21T00:14:15.416Z,102132.00
2022-09-21T00:14:45.831Z,102128.97
2022-09-21T00:15:16.257Z,102136.50
2022-09-21T00:15:46.681Z,102132.16
2022-09-21T00:16:17.237Z,102133.64
2022-09-21T00:16:47.824Z,102133.02
2022-09-21T00:17:18.222Z,102133.02
2022-09-21T00:17:48.645Z,102135.36
2022-09-21T00:18:19.070Z,102133.50
2022-09-21T00:18:49.492Z,102138.30
2022-09-21T00:19:19.929Z,102137.95
2022-09-21T00:19:50.351Z,102134.62
2022-09-21T00:20:20.774Z,102136.83
2022-09-21T00:20:51.197Z,102131.99
2022-09-21T00:21:21.612Z,102132.97
2022-09-21T00:21:52.042Z,102136.48
2022-09-21T00:22:22.470Z,102133.95
2022-09-21T00:22:52.887Z,102135.28
2022-09-21T00:23:23.311Z,102131.28
2022-09-21T00:23:53.726Z,102133.92
2022-09-21T00:24:24.161Z,102133.73
2022-09-21T00:24:54.583Z,102131.90
2022-09-21T00:25:25.014Z,102128.70
2022-09-21T00:25:55.442Z,102131.53
2022-09-21T00:26:25.858Z,102134.38
2022-09-21T00:26:56.279Z,102132.70
2022-09-21T00:27:26.709Z,102131.88
2022-09-21T00:27:57.129Z,102131.93
2022-09-21T00:28:27.548Z,102131.07
2022-09-21T00:28:57.970Z,102130.89
2022-09-21T00:29:28.398Z,102132.45
2022-09-21T00:29:58.819Z,102132.78
2022-09-21T00:30:29.238Z,102129.06
2022-09-21T00:30:59.666Z,102129.09
2022-09-21T00:31:30.148Z,102133.25
2022-09-21T00:32:00.663Z,102133.26
2022-09-21T00:32:31.072Z,102132.78
2022-09-21T00:33:01.490Z,102132.95
2022-09-21T00:33:31.915Z,102133.78
2022-09-21T00:34:02.342Z,102136.77
2022-09-21T00:34:32.776Z,102137.62
2022-09-21T00:35:03.197Z,102133.73
2022-09-21T00:35:33.621Z,102133.04
2022-09-21T00:36:04.037Z,102134.02
2022-09-21T00:36:34.456Z,102136.52
2022-09-21T00:37:04.876Z,102133.33
2022-09-21T00:37:35.292Z,102131.47
2022-09-21T00:38:05.712Z,102130.88
2022-09-21T00:38:36.131Z,102133.23
2022-09-21T00:39:06.552Z,102130.88
2022-09-21T00:39:37.165Z,102133.07
2022-09-21T00:40:07.619Z,102130.54
2022-09-21T00:40:38.046Z,102128.20
2022-09-21T00:41:08.438Z,102130.75
2022-09-21T00:41:38.855Z,102129.73
2022-09-21T00:42:09.277Z,102128.89
2022-09-21T00:42:39.696Z,102127.56
2022-09-21T00:43:10.120Z,102130.73
2022-09-21T00:43:40.539Z,102129.73
2022-09-21T00:44:10.970Z,102128.73
2022-09-21T00:44:41.397Z,102128.88
2022-09-21T00:45:11.814Z,102135.88
2022-09-21T00:45:42.282Z,102134.02
2022-09-21T00:46:12.663Z,102132.16
2022-09-21T00:46:43.090Z,102134.19
2022-09-21T00:47:13.536Z,102136.02
2022-09-21T00:47:43.934Z,102134.66
2022-09-21T00:48:14.359Z,102135.98
2022-09-21T00:48:44.772Z,102134.16
2022-09-21T00:49:15.193Z,102136.50
2022-09-21T00:49:45.630Z,102136.16
2022-09-21T00:50:16.053Z,102136.33
2022-09-21T00:50:46.477Z,102137.36
2022-09-21T00:51:16.891Z,102136.88
2022-09-21T00:51:47.314Z,102143.25
2022-09-21T00:52:17.737Z,102138.10
2022-09-21T00:52:48.180Z,102142.13
2022-09-21T00:53:18.599Z,102135.76
2022-09-21T00:53:49.019Z,102136.73
2022-09-21T00:54:19.449Z,102141.08
2022-09-21T00:54:50.028Z,102138.58
2022-09-21T00:55:20.442Z,102140.24
2022-09-21T00:55:50.861Z,102141.58
2022-09-21T00:56:21.281Z,102137.07
2022-09-21T00:56:51.701Z,102136.41
2022-09-21T00:57:22.119Z,102140.44
2022-09-21T00:57:52.541Z,102141.77
2022-09-21T00:58:22.962Z,102139.24
2022-09-21T00:58:53.385Z,102139.55
2022-09-21T00:59:28.047Z,102140.41
2022-09-21T00:59:59.168Z,102140.58
2022-09-21T01:00:29.589Z,102139.88
2022-09-21T01:01:00.041Z,102139.05
2022-09-21T01:01:30.449Z,102138.38
2022-09-21T01:02:00.928Z,102140.86
2022-09-21T01:02:31.388Z,102139.50
2022-09-21T01:03:01.790Z,102138.81
2022-09-21T01:03:32.210Z,102139.50
2022-09-21T01:04:02.640Z,102141.36
2022-09-21T01:04:33.057Z,102141.22
2022-09-21T01:05:03.491Z,102140.02
2022-09-21T01:05:33.909Z,102144.36
2022-09-21T01:06:04.332Z,102143.53
2022-09-21T01:06:34.752Z,102144.36
2022-09-21T01:07:05.173Z,102148.54
2022-09-21T01:07:35.595Z,102149.84
2022-09-21T01:08:06.016Z,102144.53
2022-09-21T01:08:36.437Z,102143.50
2022-09-21T01:09:06.857Z,102146.84
2022-09-21T01:09:37.274Z,102149.84
2022-09-21T01:10:07.724Z,102147.52
2022-09-21T01:10:38.131Z,102146.31
2022-09-21T01:11:08.552Z,102147.98
2022-09-21T01:11:38.972Z,102147.80
2022-09-21T01:12:09.393Z,102147.60
2022-09-21T01:12:39.812Z,102147.12
2022-09-21T01:13:10.241Z,102145.48
2022-09-21T01:13:40.661Z,102146.48
2022-09-21T01:14:11.079Z,102139.17
2022-09-21T01:14:41.500Z,102145.15
2022-09-21T01:15:11.947Z,102146.82
2022-09-21T01:15:43.170Z,102142.45
2022-09-21T01:16:13.612Z,102143.48
2022-09-21T01:16:44.072Z,102144.15
2022-09-21T01:17:14.436Z,102140.00
2022-09-21T01:17:44.874Z,102140.34
2022-09-21T01:18:15.280Z,102138.28
2022-09-21T01:18:45.698Z,102139.79
2022-09-21T01:19:16.115Z,102141.09
2022-09-21T01:19:46.535Z,102142.80
2022-09-21T01:20:17.031Z,102138.31
2022-09-21T01:20:47.450Z,102139.98
2022-09-21T01:21:17.870Z,102140.33
2022-09-21T01:21:48.287Z,102137.70
2022-09-21T01:22:18.711Z,102140.33
2022-09-21T01:22:49.139Z,102143.70
2022-09-21T01:23:19.563Z,102136.14
2022-09-21T01:23:49.981Z,102142.66
2022-09-21T01:24:20.404Z,102144.48
2022-09-21T01:24:50.820Z,102143.12
2022-09-21T01:25:21.260Z,102142.17
2022-09-21T01:25:51.682Z,102143.84
2022-09-21T01:26:22.102Z,102146.51
2022-09-21T01:26:52.527Z,102145.34
2022-09-21T01:27:22.943Z,102146.62
2022-09-21T01:27:53.377Z,102148.79
2022-09-21T01:28:23.800Z,102147.98
2022-09-21T01:28:54.260Z,102147.01
2022-09-21T01:29:24.659Z,102152.70
2022-09-21T01:29:55.081Z,102152.52
2022-09-21T01:30:25.521Z,102151.16
2022-09-21T01:30:55.955Z,102151.77
2022-09-21T01:31:26.392Z,102153.78
2022-09-21T01:31:56.783Z,102154.25
2022-09-21T01:32:27.198Z,102152.61
2022-09-21T01:32:57.662Z,102156.81
2022-09-21T01:33:28.061Z,102152.94
2022-09-21T01:33:58.483Z,102155.95
2022-09-21T01:34:28.904Z,102153.75
2022-09-21T01:34:59.324Z,102157.40
2022-09-21T01:35:29.763Z,102156.25
2022-09-21T01:36:00.190Z,102158.28
2022-09-21T01:36:30.601Z,102158.28
2022-09-21T01:37:01.027Z,102155.80
2022-09-21T01:37:31.446Z,102157.95
2022-09-21T01:38:01.874Z,102155.76
2022-09-21T01:38:32.293Z,102156.25
2022-09-21T01:39:02.714Z,102158.11
2022-09-21T01:39:33.135Z,102154.97
2022-09-21T01:40:03.572Z,102157.95
2022-09-21T01:40:35.767Z,102157.78
2022-09-21T01:41:06.299Z,102155.95
2022-09-21T01:41:36.717Z,102157.45
2022-09-21T01:42:07.139Z,102158.92
2022-09-21T01:42:37.560Z,102156.56
2022-09-21T01:43:07.982Z,102156.23
2022-09-21T01:43:38.405Z,102155.23
2022-09-21T01:44:08.841Z,102155.26
2022-09-21T01:44:39.255Z,102158.77
2022-09-21T01:45:09.683Z,102158.03
2022-09-21T01:45:40.189Z,102157.70
2022-09-21T01:46:10.586Z,102155.04
2022-09-21T01:46:41.010Z,102158.70
2022-09-21T01:47:11.430Z,102155.20
2022-09-21T01:47:41.849Z,102155.70
2022-09-21T01:48:12.287Z,102154.38
2022-09-21T01:48:42.694Z,102157.77
2022-09-21T01:49:13.124Z,102156.62
2022-09-21T01:49:43.537Z,102154.47
2022-09-21T01:50:13.954Z,102155.30
2022-09-21T01:50:44.401Z,102155.28
2022-09-21T01:51:14.828Z,102149.75
2022-09-21T01:51:45.257Z,102153.06
2022-09-21T01:52:15.681Z,102155.06
2022-09-21T01:52:46.097Z,102155.40
2022-09-21T01:53:16.518Z,102156.70
2022-09-21T01:53:46.936Z,102155.88
2022-09-21T01:54:17.360Z,102159.90
2022-09-21T01:54:47.788Z,102155.26
2022-09-21T01:55:18.212Z,102155.92
2022-09-21T01:55:48.663Z,102158.75
2022-09-21T01:56:19.084Z,102157.92
2022-09-21T01:56:49.547Z,102157.95
2022-09-21T01:57:19.934Z,102158.42
2022-09-21T01:57:50.352Z,102156.73
2022-09-21T01:58:20.771Z,102158.56
2022-09-21T01:58:51.194Z,102157.20
2022-09-21T01:59:21.617Z,102156.70
2022-09-21T01:59:52.044Z,102160.88
2022-09-21T02:00:22.480Z,102161.73
2022-09-21T02:00:52.942Z,102160.69
2022-09-21T02:01:23.324Z,102161.38
2022-09-21T02:01:53.820Z,102160.20
2022-09-21T02:02:24.234Z,102164.57
2022-09-21T02:02:54.655Z,102159.34
2022-09-21T02:03:25.098Z,102158.54
2022-09-21T02:03:55.497Z,102157.03
2022-09-21T02:04:25.916Z,102159.76
2022-09-21T02:04:56.339Z,102160.29
2022-09-21T02:05:26.764Z,102156.06
2022-09-21T02:05:57.204Z,102158.38
2022-09-21T02:06:27.630Z,102158.87
2022-09-21T02:06:58.059Z,102160.73
2022-09-21T02:07:28.481Z,102156.23
2022-09-21T02:07:58.902Z,102155.03
2022-09-21T02:08:29.324Z,102156.04
2022-09-21T02:08:59.749Z,102152.67
2022-09-21T02:09:30.166Z,102156.34
2022-09-21T02:10:00.587Z,102153.48
2022-09-21T02:10:31.004Z,102151.77
2022-09-21T02:11:01.433Z,102152.44
2022-09-21T02:11:31.856Z,102152.23
2022-09-21T02:12:02.279Z,102150.09
2022-09-21T02:12:32.704Z,102149.93
2022-09-21T02:13:03.128Z,102149.45
2022-09-21T02:13:33.546Z,102150.02
2022-09-21T02:14:03.967Z,102151.38
2022-09-21T02:14:34.387Z,102151.84
2022-09-21T02:15:04.807Z,102151.67
2022-09-21T02:15:35.229Z,102152.53
2022-09-21T02:16:05.721Z,102153.38
2022-09-21T02:16:36.106Z,102151.17
2022-09-21T02:17:06.524Z,102152.17
2022-09-21T02:17:36.949Z,102157.02
2022-09-21T02:18:07.367Z,102154.20
2022-09-21T02:18:37.816Z,102157.03
2022-09-21T02:19:08.268Z,102156.68
2022-09-21T02:19:38.647Z,102158.66
2022-09-21T02:20:09.078Z,102157.68
2022-09-21T02:20:39.516Z,102159.20
2022-09-21T02:21:09.936Z,102156.20
2022-09-21T02:21:40.373Z,102158.37
2022-09-21T02:22:10.792Z,102155.70
2022-09-21T02:22:41.212Z,102159.69
2022-09-21T02:23:11.633Z,102160.34
2022-09-21T02:23:42.063Z,102160.55
2022-09-21T02:24:12.485Z,102159.05
2022-09-21T02:24:42.917Z,102161.55
2022-09-21T02:25:13.338Z,102160.83
2022-09-21T02:25:43.758Z,102161.35
2022-09-21T02:26:14.193Z,102159.83
2022-09-21T02:26:44.614Z,102160.52
2022-09-21T02:27:15.035Z,102157.48
2022-09-21T02:27:45.458Z,102161.69
2022-09-21T02:28:15.886Z,102156.80
2022-09-21T02:28:46.315Z,102159.83
2022-09-21T02:29:16.736Z,102159.34
2022-09-21T02:29:47.158Z,102159.69
2022-09-21T02:30:17.579Z,102160.66
2022-09-21T02:30:48.003Z,102158.97
2022-09-21T02:31:18.484Z,102162.69
2022-09-21T02:31:48.858Z,102160.19
2022-09-21T02:32:19.278Z,102160.98
2022-09-21T02:32:49.698Z,102161.11
2022-09-21T02:33:20.117Z,102157.13
2022-09-21T02:33:50.632Z,102163.69
2022-09-21T02:34:20.985Z,102157.48
2022-09-21T02:34:51.404Z,102163.16
2022-09-21T02:35:21.820Z,102163.02
2022-09-21T02:35:52.241Z,102162.69
2022-09-21T02:36:22.671Z,102164.69
2022-09-21T02:36:53.089Z,102166.00
2022-09-21T02:37:23.507Z,102165.14
2022-09-21T02:37:53.932Z,102164.80
2022-09-21T02:38:24.355Z,102166.61
2022-09-21T02:38:54.778Z,102166.28
2022-09-21T02:39:25.198Z,102166.80
2022-09-21T02:39:55.637Z,102168.66
2022-09-21T02:40:26.086Z,102172.70
2022-09-21T02:40:56.476Z,102172.03
2022-09-21T02:41:26.915Z,102173.86
2022-09-21T02:41:57.336Z,102170.31
2022-09-21T02:42:27.760Z,102172.50
2022-09-21T02:42:58.187Z,102169.45
2022-09-21T02:43:28.611Z,102175.34
2022-09-21T02:43:59.030Z,102170.61
2022-09-21T02:44:29.475Z,102170.14
2022-09-21T02:44:59.875Z,102173.14
2022-09-21T02:45:30.313Z,102171.67
2022-09-21T02:46:00.711Z,102168.34
2022-09-21T02:46:31.205Z,102170.83
2022-09-21T02:47:01.594Z,102172.34
2022-09-21T02:47:32.015Z,102168.61
2022-09-21T02:48:02.437Z,102171.14
2022-09-21T02:48:32.856Z,102167.45
2022-09-21T02:49:03.311Z,102172.62
2022-09-21T02:49:33.696Z,102169.09
2022-09-21T02:50:04.114Z,102168.75
2022-09-21T02:50:34.537Z,102172.78
2022-09-21T02:51:04.958Z,102173.45
2022-09-21T02:51:35.411Z,102168.62
2022-09-21T02:52:05.838Z,102170.95
2022-09-21T02:52:36.258Z,102172.26
2022-09-21T02:53:06.676Z,102169.92
2022-09-21T02:53:37.103Z,102171.76
2022-09-21T02:54:07.519Z,102172.45
2022-09-21T02:54:37.952Z,102172.59
2022-09-21T02:55:08.363Z,102170.59
2022-09-21T02:55:38.784Z,102172.42
2022-09-21T02:56:09.203Z,102171.12
2022-09-21T02:56:39.636Z,102178.12
2022-09-21T02:57:10.054Z,102173.28
2022-09-21T02:57:40.480Z,102177.31
2022-09-21T02:58:10.900Z,102175.62
2022-09-21T02:58:41.318Z,102176.92
2022-09-21T02:59:11.738Z,102179.12
2022-09-21T02:59:42.158Z,102178.65
2022-09-21T03:00:12.579Z,102172.95
2022-09-21T03:00:43.029Z,102177.09
2022-09-21T03:01:13.424Z,102178.26
2022-09-21T03:01:43.916Z,102179.27
2022-09-21T03:02:14.317Z,102180.74
2022-09-21T03:02:44.719Z,102177.73
2022-09-21T03:03:15.137Z,102182.58
2022-09-21T03:03:45.555Z,102181.72
2022-09-21T03:04:15.996Z,102180.58
2022-09-21T03:04:46.398Z,102182.05
2022-09-21T03:05:16.816Z,102183.18
2022-09-21T03:05:47.234Z,102183.66
2022-09-21T03:06:17.654Z,102184.48
2022-09-21T03:06:48.103Z,102185.72
2022-09-21T03:07:18.528Z,102186.58
2022-09-21T03:07:48.950Z,102181.88
2022-09-21T03:08:19.373Z,102184.38
2022-09-21T03:08:49.801Z,102182.35
2022-09-21T03:09:20.212Z,102178.31
2022-09-21T03:09:50.633Z,102186.38
2022-09-21T03:10:21.049Z,102182.52
2022-09-21T03:10:51.471Z,102185.75
2022-09-21T03:11:21.906Z,102185.41
2022-09-21T03:11:52.356Z,102188.44
2022-09-21T03:12:22.778Z,102185.94
2022-09-21T03:12:53.196Z,102185.24
2022-09-21T03:13:23.617Z,102187.58
2022-09-21T03:13:54.037Z,102184.35
2022-09-21T03:14:24.455Z,102184.75
2022-09-21T03:14:54.876Z,102184.74
2022-09-21T03:15:25.295Z,102182.58
2022-09-21T03:15:55.726Z,102185.77
2022-09-21T03:16:26.140Z,102185.44
2022-09-21T03:16:56.593Z,102183.77
2022-09-21T03:17:27.014Z,102183.77
2022-09-21T03:17:57.433Z,102185.41
2022-09-21T03:18:27.852Z,102186.38
2022-09-21T03:18:58.275Z,102185.02
2022-09-21T03:19:28.708Z,102188.41
2022-09-21T03:19:59.111Z,102183.24
2022-09-21T03:20:29.548Z,102182.41
2022-09-21T03:20:59.966Z,102186.08
2022-09-21T03:21:30.389Z,102184.91
2022-09-21T03:22:00.830Z,102187.41
2022-09-21T03:22:31.250Z,102186.48
2022-09-21T03:23:01.672Z,102185.16
2022-09-21T03:23:32.092Z,102187.89
2022-09-21T03:24:02.511Z,102187.75
2022-09-21T03:24:32.930Z,102185.48
2022-09-21T03:25:03.364Z,102187.00
2022-09-21T03:25:33.785Z,102185.66
2022-09-21T03:26:04.207Z,102187.66
2022-09-21T03:26:34.633Z,102184.66
2022-09-21T03:27:05.078Z,102184.80
2022-09-21T03:27:35.490Z,102189.00
2022-09-21T03:28:05.910Z,102184.16
2022-09-21T03:28:36.330Z,102186.48
2022-09-21T03:29:06.966Z,102186.48
2022-09-21T03:29:37.430Z,102185.99
2022-09-21T03:30:07.849Z,102186.16
2022-09-21T03:30:38.269Z,102191.83
2022-09-21T03:31:08.755Z,102190.30
2022-09-21T03:31:39.120Z,102190.50
2022-09-21T03:32:09.587Z,102190.14
2022-09-21T03:32:39.998Z,102189.64
2022-09-21T03:33:10.420Z,102191.47
2022-09-21T03:33:40.840Z,102187.30
2022-09-21T03:34:11.266Z,102186.97
2022-09-21T03:34:41.699Z,102185.46
2022-09-21T03:35:12.102Z,102188.00
2022-09-21T03:35:42.521Z,102187.35
2022-09-21T03:36:12.950Z,102186.88
2022-09-21T03:36:43.372Z,102187.75
2022-09-21T03:37:13.810Z,102188.49
2022-09-21T03:37:44.228Z,102187.66
2022-09-21T03:38:14.651Z,102186.94
2022-09-21T03:38:45.067Z,102183.80
2022-09-21T03:39:15.488Z,102185.30
2022-09-21T03:39:45.909Z,102187.80
2022-09-21T03:40:16.402Z,102185.11
2022-09-21T03:40:46.805Z,102184.12
2022-09-21T03:41:17.226Z,102188.16
2022-09-21T03:41:47.647Z,102187.66
2022-09-21T03:42:18.083Z,102186.82
2022-09-21T03:42:48.503Z,102188.02
2022-09-21T03:43:18.921Z,102189.83
2022-09-21T03:43:49.354Z,102191.14
2022-09-21T03:44:19.771Z,102191.30
2022-09-21T03:44:50.193Z,102192.63
2022-09-21T03:45:20.615Z,102189.80
2022-09-21T03:45:51.037Z,102190.94
2022-09-21T03:46:21.490Z,102189.74
2022-09-21T03:46:51.873Z,102190.58
2022-09-21T03:47:22.325Z,102188.58
2022-09-21T03:47:52.743Z,102192.41
2022-09-21T03:48:23.164Z,102192.81
2022-09-21T03:48:53.585Z,102193.44
2022-09-21T03:49:24.008Z,102194.81
2022-09-21T03:49:54.451Z,102194.77
2022-09-21T03:50:24.856Z,102196.78
2022-09-21T03:50:55.276Z,102194.30
2022-09-21T03:51:25.696Z,102195.86
2022-09-21T03:51:56.118Z,102198.33
2022-09-21T03:52:26.558Z,102196.16
2022-09-21T03:52:56.988Z,102197.80
2022-09-21T03:53:27.409Z,102197.98
2022-09-21T03:53:57.829Z,102195.14
2022-09-21T03:54:28.254Z,102195.64
2022-09-21T03:54:58.671Z,102194.47
2022-09-21T03:55:29.110Z,102195.47
2022-09-21T03:55:59.531Z,102195.64
2022-09-21T03:56:29.954Z,102193.58
2022-09-21T03:57:00.384Z,102194.59
2022-09-21T03:57:30.821Z,102197.25
2022-09-21T03:58:01.250Z,102195.42
2022-09-21T03:58:31.664Z,102196.42
2022-09-21T03:59:02.089Z,102195.91
2022-09-21T03:59:32.507Z,102200.45
2022-09-21T04:00:02.965Z,102198.09
2022-09-21T04:00:33.348Z,102196.11
2022-09-21T04:01:03.775Z,102196.14
2022-09-21T04:01:34.236Z,102194.27
2022-09-21T04:02:04.624Z,102196.81
2022-09-21T04:02:35.093Z,102195.97
2022-09-21T04:03:05.486Z,102190.97
2022-09-21T04:03:35.905Z,102194.83
2022-09-21T04:04:06.331Z,102193.47
2022-09-21T04:04:36.741Z,102195.97
2022-09-21T04:05:07.181Z,102191.63
2022-09-21T04:05:37.583Z,102191.47
2022-09-21T04:06:08.001Z,102187.46
2022-09-21T04:06:38.422Z,102189.97
2022-09-21T04:07:08.848Z,102189.64
2022-09-21T04:07:39.287Z,102189.30
2022-09-21T04:08:09.707Z,102191.75
2022-09-21T04:08:40.129Z,102192.11
2022-09-21T04:09:10.550Z,102193.28
2022-09-21T04:09:40.973Z,102193.28
2022-09-21T04:10:11.392Z,102191.28
2022-09-21T04:10:41.810Z,102195.25
2022-09-21T04:11:12.231Z,102191.72
2022-09-21T04:11:42.655Z,102190.72
2022-09-21T04:12:13.073Z,102194.42
2022-09-21T04:12:43.514Z,102194.56
2022-09-21T04:13:13.932Z,102193.56
2022-09-21T04:13:44.356Z,102199.20
2022-09-21T04:14:14.773Z,102196.03
2022-09-21T04:14:45.192Z,102200.03
2022-09-21T04:15:15.627Z,102197.87
2022-09-21T04:15:46.068Z,102197.00
2022-09-21T04:16:16.447Z,102201.17
2022-09-21T04:16:46.869Z,102201.65
2022-09-21T04:17:17.289Z,102202.81
2022-09-21T04:17:47.738Z,102201.45
2022-09-21T04:18:18.161Z,102201.29
2022-09-21T04:18:48.578Z,102205.95
2022-09-21T04:19:19.004Z,102199.95
2022-09-21T04:19:49.423Z,102200.79
2022-09-21T04:20:19.858Z,102205.95
2022-09-21T04:20:50.260Z,102205.29
2022-09-21T04:21:20.685Z,102205.45
2022-09-21T04:21:51.102Z,102202.78
2022-09-21T04:22:21.521Z,102210.12
2022-09-21T04:22:51.953Z,102209.45
2022-09-21T04:23:22.376Z,102207.62
2022-09-21T04:23:52.794Z,102206.62
2022-09-21T04:24:23.217Z,102209.80
2022-09-21T04:24:53.634Z,102208.62
2022-09-21T04:25:24.074Z,102208.27
2022-09-21T04:25:54.478Z,102207.45
2022-09-21T04:26:24.897Z,102212.62
2022-09-21T04:26:55.320Z,102204.80
2022-09-21T04:27:25.743Z,102207.95
2022-09-21T04:27:56.184Z,102209.09
2022-09-21T04:28:26.603Z,102208.44
2022-09-21T04:28:57.159Z,102209.59
2022-09-21T04:29:27.573Z,102209.77
2022-09-21T04:29:57.994Z,102206.62
2022-09-21T04:30:28.414Z,102210.30
2022-09-21T04:30:58.903Z,102210.80
2022-09-21T04:31:29.368Z,102206.93
2022-09-21T04:31:59.747Z,102206.44
2022-09-21T04:32:30.169Z,102208.91
2022-09-21T04:33:00.608Z,102209.96
2022-09-21T04:33:31.029Z,102208.46
2022-09-21T04:34:01.451Z,102202.09
2022-09-21T04:34:31.874Z,102209.27
2022-09-21T04:35:02.302Z,102205.06
2022-09-21T04:35:32.734Z,102203.41
2022-09-21T04:36:03.146Z,102200.09
2022-09-21T04:36:36.679Z,102205.12
2022-09-21T04:37:07.277Z,102195.76
2022-09-21T04:37:37.697Z,102197.92
2022-09-21T04:38:08.152Z,102201.95
2022-09-21T04:38:38.573Z,102198.45
2022-09-21T04:39:08.998Z,102205.80
2022-09-21T04:39:39.416Z,102203.09
2022-09-21T04:40:09.941Z,102203.59
2022-09-21T04:40:40.450Z,102202.09
2022-09-21T04:41:10.811Z,102202.43
2022-09-21T04:41:41.234Z,102202.06
2022-09-21T04:42:11.655Z,102199.88
2022-09-21T04:42:42.083Z,102200.70
2022-09-21T04:43:12.529Z,102198.37
2022-09-21T04:43:42.948Z,102200.09
2022-09-21T04:44:13.370Z,102200.78
2022-09-21T04:44:43.790Z,102196.59
2022-09-21T04:45:14.211Z,102199.38
2022-09-21T04:45:44.629Z,102194.89
2022-09-21T04:46:15.121Z,102196.39
2022-09-21T04:46:45.521Z,102194.56
2022-09-21T04:47:15.943Z,102197.67
2022-09-21T04:47:46.363Z,102193.67
2022-09-21T04:48:16.810Z,102196.48
2022-09-21T04:48:47.231Z,102201.17
2022-09-21T04:49:17.657Z,102192.98
2022-09-21T04:49:48.078Z,102192.17
2022-09-21T04:50:18.500Z,102191.02
2022-09-21T04:50:48.936Z,102190.01
2022-09-21T04:51:19.341Z,102195.00
2022-09-21T04:51:49.760Z,102196.88
2022-09-21T04:52:20.183Z,102196.06
2022-09-21T04:52:50.606Z,102192.53
2022-09-21T04:53:21.059Z,102196.53
2022-09-21T04:53:51.586Z,102199.90
2022-09-21T04:54:21.970Z,102199.04
2022-09-21T04:54:52.393Z,102198.38
2022-09-21T04:55:22.817Z,102202.20
2022-09-21T04:55:53.239Z,102202.38
2022-09-21T04:56:23.666Z,102207.38
2022-09-21T04:56:54.080Z,102199.88
2022-09-21T04:57:24.502Z,102205.54
2022-09-21T04:57:54.924Z,102203.70
2022-09-21T04:58:25.361Z,102209.34
2022-09-21T04:58:55.780Z,102207.02
2022-09-21T04:59:26.197Z,102210.34
2022-09-21T04:59:56.620Z,102209.68
2022-09-21T05:00:27.042Z,102211.19
2022-09-21T05:00:57.473Z,102213.19
2022-09-21T05:01:28.024Z,102214.19
2022-09-21T05:01:58.429Z,102214.05
2022-09-21T05:02:28.852Z,102213.38
2022-09-21T05:02:59.272Z,102216.35
2022-09-21T05:03:29.765Z,102221.48
2022-09-21T05:04:00.253Z,102220.02
2022-09-21T05:04:30.640Z,102216.52
2022-09-21T05:05:01.054Z,102221.22
2022-09-21T05:05:31.484Z,102223.22
2022-09-21T05:06:01.922Z,102221.05
2022-09-21T05:06:32.326Z,102221.85
2022-09-21T05:07:02.762Z,102219.72
2022-09-21T05:07:33.192Z,102223.88
2022-09-21T05:08:03.631Z,102215.55
2022-09-21T05:08:34.067Z,102217.55
2022-09-21T05:09:04.492Z,102220.05
2022-09-21T05:09:34.911Z,102221.22
2022-09-21T05:10:05.329Z,102225.19
2022-09-21T05:10:35.752Z,102223.86
2022-09-21T05:11:06.171Z,102227.02
2022-09-21T05:11:36.594Z,102229.70
2022-09-21T05:12:07.013Z,102228.50
2022-09-21T05:12:40.851Z,102224.99
2022-09-21T05:13:11.561Z,102231.66
2022-09-21T05:13:42.007Z,102229.50
2022-09-21T05:14:12.427Z,102228.70
2022-09-21T05:14:42.851Z,102230.66
2022-09-21T05:15:13.277Z,102231.50
2022-09-21T05:15:43.745Z,102231.61
2022-09-21T05:16:14.134Z,102230.97
2022-09-21T05:16:44.563Z,102229.16
2022-09-21T05:17:14.987Z,102230.50
2022-09-21T05:17:45.407Z,102231.33
2022-09-21T05:18:15.830Z,102236.22
2022-09-21T05:18:46.281Z,102233.89
2022-09-21T05:19:16.707Z,102236.55
2022-09-21T05:19:47.129Z,102233.23
2022-09-21T05:20:17.549Z,102233.86
2022-09-21T05:20:47.973Z,102235.00
2022-09-21T05:21:18.412Z,102235.83
2022-09-21T05:21:48.813Z,102238.14
2022-09-21T05:22:19.233Z,102234.14
2022-09-21T05:22:49.658Z,102236.00
2022-09-21T05:23:20.088Z,102238.00
2022-09-21T05:23:50.538Z,102236.53
2022-09-21T05:24:20.960Z,102237.53
2022-09-21T05:24:51.382Z,102235.55
2022-09-21T05:25:21.806Z,102235.22
2022-09-21T05:25:52.227Z,102237.75
2022-09-21T05:26:22.652Z,102242.09
2022-09-21T05:26:53.073Z,102237.56
2022-09-21T05:27:23.494Z,102234.86
2022-09-21T05:27:53.917Z,102236.89
2022-09-21T05:28:24.341Z,102241.56
2022-09-21T05:28:54.845Z,102243.62
2022-09-21T05:29:25.203Z,102240.72
2022-09-21T05:29:55.628Z,102241.39
2022-09-21T05:30:26.085Z,102245.59
2022-09-21T05:31:16.612Z,102241.89
2022-09-21T05:31:31.900Z,102240.73
2022-09-21T05:32:02.302Z,102243.89
2022-09-21T05:32:32.721Z,102246.53
2022-09-21T05:33:03.141Z,102249.17
2022-09-21T05:33:33.567Z,102250.01
2022-09-21T05:34:04.008Z,102250.70
2022-09-21T05:34:36.755Z,102251.17
2022-09-21T05:35:07.345Z,102255.73
2022-09-21T05:35:37.761Z,102253.56
2022-09-21T05:36:08.186Z,102255.06
2022-09-21T05:36:38.672Z,102256.80
2022-09-21T05:37:09.038Z,102260.16
2022-09-21T05:37:39.457Z,102260.12
2022-09-21T05:38:09.884Z,102256.12
2022-09-21T05:38:40.307Z,102259.46
2022-09-21T05:39:10.754Z,102261.62
2022-09-21T05:39:41.175Z,102258.09
2022-09-21T05:40:11.642Z,102258.80
2022-09-21T05:40:42.062Z,102255.91
2022-09-21T05:41:12.445Z,102255.20
2022-09-21T05:41:42.869Z,102256.04
2022-09-21T05:42:13.292Z,102258.57
2022-09-21T05:42:43.716Z,102260.23
2022-09-21T05:43:14.137Z,102263.27
2022-09-21T05:43:44.558Z,102256.96
2022-09-21T05:44:15.008Z,102259.83
2022-09-21T05:44:45.427Z,102262.10
2022-09-21T05:45:15.851Z,102260.96
2022-09-21T05:45:47.964Z,102263.63
2022-09-21T05:46:18.488Z,102259.07
2022-09-21T05:46:52.729Z,102257.56
2022-09-21T05:47:24.189Z,102261.77